sensor_id;sensor_type;location;lat;lon;timestamp;P1;durP1;ratioP1;P2;durP2;ratioP2
56824;SDS011;42705;50.326;18.772;2023-12-29T00:00:58;34.10;;;18.10;;
56824;SDS011;42705;50.326;18.772;2023-12-29T00:06:35;32.90;;;16.70;;
56824;SDS011;42705;50.326;18.772;2023-12-29T00:11:59;29.20;;;16.30;;
56824;SDS011;42705;50.326;18.772;2023-12-29T00:17:21;31.90;;;15.20;;
56824;SDS011;42705;50.326;18.772;2023-12-29T00:22:43;30.80;;;14.80;;
56824;SDS011;42705;50.326;18.772;2023-12-29T00:28:05;28.30;;;13.20;;
56824;SDS011;42705;50.326;18.772;2023-12-29T00:33:27;22.80;;;11.90;;
56824;SDS011;42705;50.326;18.772;2023-12-29T00:38:49;23.60;;;13.30;;
56824;SDS011;42705;50.326;18.772;2023-12-29T00:44:11;21.40;;;12.00;;
56824;SDS011;42705;50.326;18.772;2023-12-29T00:49:33;21.40;;;11.20;;
56824;SDS011;42705;50.326;18.772;2023-12-29T00:54:55;20.10;;;11.50;;
56824;SDS011;42705;50.326;18.772;2023-12-29T01:00:17;22.80;;;12.30;;
56824;SDS011;42705;50.326;18.772;2023-12-29T01:05:39;19.80;;;10.90;;
56824;SDS011;42705;50.326;18.772;2023-12-29T01:11:01;21.70;;;11.30;;
56824;SDS011;42705;50.326;18.772;2023-12-29T01:16:23;21.50;;;11.90;;
56824;SDS011;42705;50.326;18.772;2023-12-29T01:21:45;21.20;;;12.00;;
56824;SDS011;42705;50.326;18.772;2023-12-29T01:27:07;19.10;;;10.40;;
56824;SDS011;42705;50.326;18.772;2023-12-29T01:32:29;19.10;;;9.80;;
56824;SDS011;42705;50.326;18.772;2023-12-29T01:43:15;17.70;;;9.90;;
56824;SDS011;42705;50.326;18.772;2023-12-29T01:48:37;15.20;;;9.40;;
56824;SDS011;42705;50.326;18.772;2023-12-29T01:53:58;17.70;;;11.00;;
56824;SDS011;42705;50.326;18.772;2023-12-29T01:59:21;19.40;;;11.10;;
56824;SDS011;42705;50.326;18.772;2023-12-29T02:04:43;19.90;;;11.40;;
56824;SDS011;42705;50.326;18.772;2023-12-29T02:10:06;16.20;;;9.10;;
56824;SDS011;42705;50.326;18.772;2023-12-29T02:15:28;17.80;;;9.00;;
56824;SDS011;42705;50.326;18.772;2023-12-29T02:20:50;16.60;;;9.30;;
56824;SDS011;42705;50.326;18.772;2023-12-29T02:26:12;14.60;;;9.00;;
56824;SDS011;42705;50.326;18.772;2023-12-29T02:31:37;14.10;;;8.90;;
56824;SDS011;42705;50.326;18.772;2023-12-29T02:37:02;15.40;;;9.00;;
56824;SDS011;42705;50.326;18.772;2023-12-29T02:42:25;17.00;;;9.00;;
56824;SDS011;42705;50.326;18.772;2023-12-29T02:47:48;12.00;;;7.80;;
56824;SDS011;42705;50.326;18.772;2023-12-29T02:53:10;12.70;;;7.10;;
56824;SDS011;42705;50.326;18.772;2023-12-29T02:58:32;13.30;;;8.30;;
56824;SDS011;42705;50.326;18.772;2023-12-29T03:03:54;12.30;;;7.90;;
56824;SDS011;42705;50.326;18.772;2023-12-29T03:09:16;13.80;;;8.10;;
56824;SDS011;42705;50.326;18.772;2023-12-29T03:14:38;17.10;;;8.80;;
56824;SDS011;42705;50.326;18.772;2023-12-29T03:20:01;15.60;;;9.00;;
56824;SDS011;42705;50.326;18.772;2023-12-29T03:25:27;14.10;;;8.20;;
56824;SDS011;42705;50.326;18.772;2023-12-29T03:30:48;14.20;;;7.70;;
56824;SDS011;42705;50.326;18.772;2023-12-29T03:36:10;11.20;;;7.00;;
56824;SDS011;42705;50.326;18.772;2023-12-29T03:41:32;13.00;;;7.60;;
56824;SDS011;42705;50.326;18.772;2023-12-29T03:46:54;14.90;;;7.80;;
56824;SDS011;42705;50.326;18.772;2023-12-29T03:52:16;12.30;;;7.60;;
56824;SDS011;42705;50.326;18.772;2023-12-29T03:57:38;13.40;;;7.50;;
56824;SDS011;42705;50.326;18.772;2023-12-29T04:03:00;16.20;;;8.80;;
56824;SDS011;42705;50.326;18.772;2023-12-29T04:08:22;14.80;;;8.60;;
56824;SDS011;42705;50.326;18.772;2023-12-29T04:13:44;17.50;;;9.50;;
56824;SDS011;42705;50.326;18.772;2023-12-29T04:19:06;17.30;;;9.90;;
56824;SDS011;42705;50.326;18.772;2023-12-29T04:24:27;18.10;;;9.90;;
56824;SDS011;42705;50.326;18.772;2023-12-29T04:29:49;16.40;;;9.50;;
56824;SDS011;42705;50.326;18.772;2023-12-29T04:35:11;18.00;;;9.20;;
56824;SDS011;42705;50.326;18.772;2023-12-29T04:40:36;17.60;;;9.60;;
56824;SDS011;42705;50.326;18.772;2023-12-29T04:51:21;19.60;;;11.20;;
56824;SDS011;42705;50.326;18.772;2023-12-29T04:56:43;18.10;;;9.50;;
56824;SDS011;42705;50.326;18.772;2023-12-29T05:02:05;21.50;;;11.30;;
56824;SDS011;42705;50.326;18.772;2023-12-29T05:07:27;17.10;;;10.30;;
56824;SDS011;42705;50.326;18.772;2023-12-29T05:12:49;16.80;;;10.10;;
56824;SDS011;42705;50.326;18.772;2023-12-29T05:18:11;18.50;;;9.50;;
56824;SDS011;42705;50.326;18.772;2023-12-29T05:23:33;16.50;;;9.60;;
56824;SDS011;42705;50.326;18.772;2023-12-29T05:28:54;15.70;;;9.20;;
56824;SDS011;42705;50.326;18.772;2023-12-29T05:34:16;13.40;;;8.20;;
56824;SDS011;42705;50.326;18.772;2023-12-29T05:39:41;14.40;;;8.90;;
56824;SDS011;42705;50.326;18.772;2023-12-29T05:45:04;12.60;;;8.10;;
56824;SDS011;42705;50.326;18.772;2023-12-29T05:50:26;15.30;;;8.50;;
56824;SDS011;42705;50.326;18.772;2023-12-29T05:55:48;10.00;;;7.00;;
56824;SDS011;42705;50.326;18.772;2023-12-29T06:01:10;12.30;;;6.90;;
56824;SDS011;42705;50.326;18.772;2023-12-29T06:06:32;12.00;;;6.60;;
56824;SDS011;42705;50.326;18.772;2023-12-29T06:11:54;11.60;;;6.40;;
56824;SDS011;42705;50.326;18.772;2023-12-29T06:17:16;12.30;;;6.90;;
56824;SDS011;42705;50.326;18.772;2023-12-29T06:22:41;10.20;;;5.60;;
56824;SDS011;42705;50.326;18.772;2023-12-29T06:28:03;8.40;;;5.40;;
56824;SDS011;42705;50.326;18.772;2023-12-29T06:33:28;9.80;;;5.20;;
56824;SDS011;42705;50.326;18.772;2023-12-29T06:38:49;9.40;;;5.10;;
56824;SDS011;42705;50.326;18.772;2023-12-29T06:49:34;9.20;;;5.20;;
56824;SDS011;42705;50.326;18.772;2023-12-29T06:54:57;9.30;;;4.70;;
56824;SDS011;42705;50.326;18.772;2023-12-29T07:00:19;13.00;;;5.80;;
56824;SDS011;42705;50.326;18.772;2023-12-29T07:05:41;8.20;;;4.90;;
56824;SDS011;42705;50.326;18.772;2023-12-29T07:11:03;10.70;;;5.10;;
56824;SDS011;42705;50.326;18.772;2023-12-29T07:16:25;8.40;;;5.20;;
56824;SDS011;42705;50.326;18.772;2023-12-29T07:21:47;10.10;;;5.10;;
56824;SDS011;42705;50.326;18.772;2023-12-29T07:27:09;8.50;;;5.00;;
56824;SDS011;42705;50.326;18.772;2023-12-29T07:32:31;11.60;;;6.50;;
56824;SDS011;42705;50.326;18.772;2023-12-29T07:37:53;15.70;;;7.90;;
56824;SDS011;42705;50.326;18.772;2023-12-29T07:43:15;11.40;;;6.50;;
56824;SDS011;42705;50.326;18.772;2023-12-29T07:48:37;14.00;;;7.20;;
56824;SDS011;42705;50.326;18.772;2023-12-29T07:53:59;11.20;;;7.00;;
56824;SDS011;42705;50.326;18.772;2023-12-29T07:59:21;13.50;;;7.80;;
56824;SDS011;42705;50.326;18.772;2023-12-29T08:04:43;13.00;;;7.20;;
56824;SDS011;42705;50.326;18.772;2023-12-29T08:10:08;10.00;;;6.20;;
56824;SDS011;42705;50.326;18.772;2023-12-29T08:15:30;11.10;;;6.00;;
56824;SDS011;42705;50.326;18.772;2023-12-29T08:20:52;12.30;;;6.20;;
56824;SDS011;42705;50.326;18.772;2023-12-29T08:26:14;10.90;;;6.10;;
56824;SDS011;42705;50.326;18.772;2023-12-29T08:31:37;10.20;;;6.10;;
56824;SDS011;42705;50.326;18.772;2023-12-29T08:36:58;12.20;;;6.40;;
56824;SDS011;42705;50.326;18.772;2023-12-29T08:42:21;12.90;;;6.90;;
56824;SDS011;42705;50.326;18.772;2023-12-29T08:47:43;13.50;;;6.50;;
56824;SDS011;42705;50.326;18.772;2023-12-29T08:53:04;10.00;;;5.80;;
56824;SDS011;42705;50.326;18.772;2023-12-29T08:58:27;11.80;;;6.20;;
56824;SDS011;42705;50.326;18.772;2023-12-29T09:03:49;9.50;;;5.70;;
56824;SDS011;42705;50.326;18.772;2023-12-29T09:09:11;13.10;;;6.10;;
56824;SDS011;42705;50.326;18.772;2023-12-29T09:14:34;8.40;;;5.30;;
56824;SDS011;42705;50.326;18.772;2023-12-29T09:19:56;11.00;;;6.00;;
56824;SDS011;42705;50.326;18.772;2023-12-29T09:25:18;9.80;;;5.40;;
56824;SDS011;42705;50.326;18.772;2023-12-29T09:30:40;7.50;;;5.10;;
56824;SDS011;42705;50.326;18.772;2023-12-29T09:36:02;7.70;;;4.30;;
56824;SDS011;42705;50.326;18.772;2023-12-29T09:41:24;9.10;;;4.50;;
56824;SDS011;42705;50.326;18.772;2023-12-29T09:46:50;6.90;;;4.30;;
56824;SDS011;42705;50.326;18.772;2023-12-29T09:52:16;7.40;;;5.00;;
56824;SDS011;42705;50.326;18.772;2023-12-29T09:57:38;6.70;;;4.20;;
56824;SDS011;42705;50.326;18.772;2023-12-29T10:08:24;12.70;;;6.00;;
56824;SDS011;42705;50.326;18.772;2023-12-29T10:13:48;10.40;;;6.00;;
56824;SDS011;42705;50.326;18.772;2023-12-29T10:24:43;9.00;;;4.40;;
56824;SDS011;42705;50.326;18.772;2023-12-29T10:30:09;6.60;;;4.10;;
56824;SDS011;42705;50.326;18.772;2023-12-29T10:35:35;9.10;;;5.00;;
56824;SDS011;42705;50.326;18.772;2023-12-29T10:46:37;7.80;;;4.50;;
56824;SDS011;42705;50.326;18.772;2023-12-29T10:51:59;5.90;;;4.30;;
56824;SDS011;42705;50.326;18.772;2023-12-29T10:57:20;7.70;;;4.50;;
56824;SDS011;42705;50.326;18.772;2023-12-29T11:02:43;9.30;;;4.80;;
56824;SDS011;42705;50.326;18.772;2023-12-29T11:08:18;11.40;;;4.60;;
56824;SDS011;42705;50.326;18.772;2023-12-29T11:13:41;8.50;;;4.40;;
56824;SDS011;42705;50.326;18.772;2023-12-29T11:19:03;5.30;;;3.10;;
56824;SDS011;42705;50.326;18.772;2023-12-29T11:29:48;4.90;;;3.10;;
56824;SDS011;42705;50.326;18.772;2023-12-29T11:35:11;3.80;;;2.50;;
56824;SDS011;42705;50.326;18.772;2023-12-29T11:40:44;4.90;;;2.50;;
56824;SDS011;42705;50.326;18.772;2023-12-29T11:52:10;6.80;;;3.40;;
56824;SDS011;42705;50.326;18.772;2023-12-29T11:57:32;5.90;;;3.20;;
56824;SDS011;42705;50.326;18.772;2023-12-29T12:02:54;5.70;;;2.90;;
56824;SDS011;42705;50.326;18.772;2023-12-29T12:08:32;5.00;;;2.90;;
56824;SDS011;42705;50.326;18.772;2023-12-29T12:13:58;5.20;;;2.90;;
56824;SDS011;42705;50.326;18.772;2023-12-29T12:19:21;4.60;;;2.90;;
56824;SDS011;42705;50.326;18.772;2023-12-29T12:24:45;6.30;;;3.60;;
56824;SDS011;42705;50.326;18.772;2023-12-29T12:30:08;4.90;;;3.00;;
56824;SDS011;42705;50.326;18.772;2023-12-29T12:35:31;5.60;;;2.90;;
56824;SDS011;42705;50.326;18.772;2023-12-29T12:40:53;8.20;;;2.80;;
56824;SDS011;42705;50.326;18.772;2023-12-29T12:46:15;4.50;;;2.60;;
56824;SDS011;42705;50.326;18.772;2023-12-29T12:51:37;5.80;;;3.40;;
56824;SDS011;42705;50.326;18.772;2023-12-29T12:56:59;6.20;;;2.70;;
56824;SDS011;42705;50.326;18.772;2023-12-29T13:02:21;7.20;;;3.30;;
56824;SDS011;42705;50.326;18.772;2023-12-29T13:13:07;5.00;;;3.10;;
56824;SDS011;42705;50.326;18.772;2023-12-29T13:18:29;4.60;;;3.10;;
56824;SDS011;42705;50.326;18.772;2023-12-29T13:23:53;9.50;;;4.00;;
56824;SDS011;42705;50.326;18.772;2023-12-29T13:29:16;7.30;;;3.70;;
56824;SDS011;42705;50.326;18.772;2023-12-29T13:34:47;8.10;;;3.50;;
56824;SDS011;42705;50.326;18.772;2023-12-29T13:40:22;6.90;;;3.90;;
56824;SDS011;42705;50.326;18.772;2023-12-29T13:45:48;10.20;;;4.40;;
56824;SDS011;42705;50.326;18.772;2023-12-29T13:51:11;7.80;;;3.70;;
56824;SDS011;42705;50.326;18.772;2023-12-29T13:56:33;7.40;;;4.00;;
56824;SDS011;42705;50.326;18.772;2023-12-29T14:01:55;7.90;;;3.10;;
56824;SDS011;42705;50.326;18.772;2023-12-29T14:07:21;8.50;;;3.90;;
56824;SDS011;42705;50.326;18.772;2023-12-29T14:12:46;6.70;;;3.90;;
56824;SDS011;42705;50.326;18.772;2023-12-29T14:23:33;6.20;;;3.60;;
56824;SDS011;42705;50.326;18.772;2023-12-29T14:29:02;5.80;;;3.10;;
56824;SDS011;42705;50.326;18.772;2023-12-29T14:39:50;7.60;;;3.80;;
56824;SDS011;42705;50.326;18.772;2023-12-29T14:45:13;8.60;;;4.10;;
56824;SDS011;42705;50.326;18.772;2023-12-29T14:50:35;12.50;;;5.40;;
56824;SDS011;42705;50.326;18.772;2023-12-29T14:55:57;9.90;;;5.00;;
56824;SDS011;42705;50.326;18.772;2023-12-29T15:01:19;8.30;;;5.00;;
56824;SDS011;42705;50.326;18.772;2023-12-29T15:06:41;12.20;;;6.20;;
56824;SDS011;42705;50.326;18.772;2023-12-29T15:12:03;16.00;;;8.00;;
56824;SDS011;42705;50.326;18.772;2023-12-29T15:17:26;17.10;;;8.60;;
56824;SDS011;42705;50.326;18.772;2023-12-29T15:22:48;17.50;;;9.00;;
56824;SDS011;42705;50.326;18.772;2023-12-29T15:33:33;16.40;;;9.30;;
56824;SDS011;42705;50.326;18.772;2023-12-29T15:38:55;19.40;;;9.30;;
56824;SDS011;42705;50.326;18.772;2023-12-29T15:44:20;21.80;;;10.20;;
56824;SDS011;42705;50.326;18.772;2023-12-29T15:49:42;16.70;;;8.80;;
56824;SDS011;42705;50.326;18.772;2023-12-29T15:55:04;17.40;;;8.60;;
56824;SDS011;42705;50.326;18.772;2023-12-29T16:00:28;16.20;;;8.70;;
56824;SDS011;42705;50.326;18.772;2023-12-29T16:05:50;18.80;;;9.70;;
56824;SDS011;42705;50.326;18.772;2023-12-29T16:11:46;19.90;;;8.60;;
56824;SDS011;42705;50.326;18.772;2023-12-29T16:17:00;16.70;;;8.70;;
56824;SDS011;42705;50.326;18.772;2023-12-29T16:22:23;22.00;;;10.30;;
56824;SDS011;42705;50.326;18.772;2023-12-29T16:27:45;23.20;;;11.60;;
56824;SDS011;42705;50.326;18.772;2023-12-29T16:33:07;19.20;;;9.60;;
56824;SDS011;42705;50.326;18.772;2023-12-29T16:38:29;24.70;;;12.40;;
56824;SDS011;42705;50.326;18.772;2023-12-29T16:43:51;21.90;;;10.20;;
56824;SDS011;42705;50.326;18.772;2023-12-29T16:49:13;19.20;;;10.20;;
56824;SDS011;42705;50.326;18.772;2023-12-29T16:54:35;18.90;;;9.80;;
56824;SDS011;42705;50.326;18.772;2023-12-29T16:59:57;25.80;;;11.10;;
56824;SDS011;42705;50.326;18.772;2023-12-29T17:05:18;26.80;;;12.80;;
56824;SDS011;42705;50.326;18.772;2023-12-29T17:10:40;23.60;;;11.00;;
56824;SDS011;42705;50.326;18.772;2023-12-29T17:16:02;23.60;;;11.00;;
56824;SDS011;42705;50.326;18.772;2023-12-29T17:21:26;24.60;;;11.10;;
56824;SDS011;42705;50.326;18.772;2023-12-29T17:26:48;22.00;;;11.20;;
56824;SDS011;42705;50.326;18.772;2023-12-29T17:32:10;20.40;;;10.80;;
56824;SDS011;42705;50.326;18.772;2023-12-29T17:37:32;16.50;;;9.70;;
56824;SDS011;42705;50.326;18.772;2023-12-29T17:42:54;21.30;;;11.20;;
56824;SDS011;42705;50.326;18.772;2023-12-29T17:48:16;19.40;;;9.30;;
56824;SDS011;42705;50.326;18.772;2023-12-29T17:53:38;20.20;;;9.70;;
56824;SDS011;42705;50.326;18.772;2023-12-29T17:59:00;19.20;;;8.60;;
56824;SDS011;42705;50.326;18.772;2023-12-29T18:04:22;17.10;;;9.20;;
56824;SDS011;42705;50.326;18.772;2023-12-29T18:09:44;19.30;;;9.40;;
56824;SDS011;42705;50.326;18.772;2023-12-29T18:15:06;18.60;;;9.30;;
56824;SDS011;42705;50.326;18.772;2023-12-29T18:20:32;15.80;;;8.20;;
56824;SDS011;42705;50.326;18.772;2023-12-29T18:25:54;15.90;;;9.00;;
56824;SDS011;42705;50.326;18.772;2023-12-29T18:31:18;16.80;;;8.30;;
56824;SDS011;42705;50.326;18.772;2023-12-29T18:36:40;15.10;;;8.20;;
56824;SDS011;42705;50.326;18.772;2023-12-29T18:42:02;16.50;;;8.70;;
56824;SDS011;42705;50.326;18.772;2023-12-29T18:47:27;13.70;;;7.70;;
56824;SDS011;42705;50.326;18.772;2023-12-29T18:52:49;15.80;;;8.90;;
56824;SDS011;42705;50.326;18.772;2023-12-29T18:58:12;23.30;;;9.70;;
56824;SDS011;42705;50.326;18.772;2023-12-29T19:03:34;20.30;;;8.20;;
56824;SDS011;42705;50.326;18.772;2023-12-29T19:08:56;19.20;;;9.50;;
56824;SDS011;42705;50.326;18.772;2023-12-29T19:14:18;22.40;;;10.10;;
56824;SDS011;42705;50.326;18.772;2023-12-29T19:19:40;23.50;;;11.00;;
56824;SDS011;42705;50.326;18.772;2023-12-29T19:25:03;27.50;;;13.20;;
56824;SDS011;42705;50.326;18.772;2023-12-29T19:30:25;24.80;;;12.10;;
56824;SDS011;42705;50.326;18.772;2023-12-29T19:35:47;23.90;;;11.60;;
56824;SDS011;42705;50.326;18.772;2023-12-29T19:41:09;21.80;;;10.50;;
56824;SDS011;42705;50.326;18.772;2023-12-29T19:46:31;24.60;;;11.20;;
56824;SDS011;42705;50.326;18.772;2023-12-29T19:51:53;24.60;;;10.80;;
56824;SDS011;42705;50.326;18.772;2023-12-29T19:57:16;20.80;;;9.80;;
56824;SDS011;42705;50.326;18.772;2023-12-29T20:02:38;25.00;;;10.70;;
56824;SDS011;42705;50.326;18.772;2023-12-29T20:13:33;18.10;;;8.30;;
56824;SDS011;42705;50.326;18.772;2023-12-29T20:18:55;16.40;;;8.80;;
56824;SDS011;42705;50.326;18.772;2023-12-29T20:24:18;18.70;;;9.10;;
56824;SDS011;42705;50.326;18.772;2023-12-29T20:29:39;23.40;;;10.90;;
56824;SDS011;42705;50.326;18.772;2023-12-29T20:35:05;20.70;;;9.40;;
56824;SDS011;42705;50.326;18.772;2023-12-29T20:40:30;19.20;;;9.30;;
56824;SDS011;42705;50.326;18.772;2023-12-29T20:45:53;14.50;;;7.40;;
56824;SDS011;42705;50.326;18.772;2023-12-29T20:51:20;11.60;;;6.20;;
56824;SDS011;42705;50.326;18.772;2023-12-29T20:56:44;12.10;;;5.30;;
56824;SDS011;42705;50.326;18.772;2023-12-29T21:02:06;10.80;;;5.50;;
56824;SDS011;42705;50.326;18.772;2023-12-29T21:07:29;12.30;;;5.70;;
56824;SDS011;42705;50.326;18.772;2023-12-29T21:12:52;11.10;;;5.60;;
56824;SDS011;42705;50.326;18.772;2023-12-29T21:18:14;13.50;;;6.00;;
56824;SDS011;42705;50.326;18.772;2023-12-29T21:23:36;13.20;;;5.50;;
56824;SDS011;42705;50.326;18.772;2023-12-29T21:28:58;11.50;;;5.70;;
56824;SDS011;42705;50.326;18.772;2023-12-29T21:34:23;10.10;;;5.20;;
56824;SDS011;42705;50.326;18.772;2023-12-29T21:39:53;14.70;;;7.70;;
56824;SDS011;42705;50.326;18.772;2023-12-29T21:45:15;17.30;;;8.70;;
56824;SDS011;42705;50.326;18.772;2023-12-29T21:50:38;15.00;;;7.90;;
56824;SDS011;42705;50.326;18.772;2023-12-29T21:56:00;13.80;;;7.60;;
56824;SDS011;42705;50.326;18.772;2023-12-29T22:01:27;13.00;;;7.40;;
56824;SDS011;42705;50.326;18.772;2023-12-29T22:06:57;14.40;;;7.80;;
56824;SDS011;42705;50.326;18.772;2023-12-29T22:12:19;14.60;;;8.20;;
56824;SDS011;42705;50.326;18.772;2023-12-29T22:17:41;12.40;;;7.30;;
56824;SDS011;42705;50.326;18.772;2023-12-29T22:23:03;12.50;;;6.70;;
56824;SDS011;42705;50.326;18.772;2023-12-29T22:33:48;10.10;;;5.60;;
56824;SDS011;42705;50.326;18.772;2023-12-29T22:39:10;10.40;;;5.40;;
56824;SDS011;42705;50.326;18.772;2023-12-29T22:44:33;9.90;;;4.90;;
56824;SDS011;42705;50.326;18.772;2023-12-29T22:49:58;13.80;;;5.30;;
56824;SDS011;42705;50.326;18.772;2023-12-29T22:55:20;10.20;;;4.70;;
56824;SDS011;42705;50.326;18.772;2023-12-29T23:00:42;10.30;;;5.10;;
56824;SDS011;42705;50.326;18.772;2023-12-29T23:06:05;10.70;;;5.60;;
56824;SDS011;42705;50.326;18.772;2023-12-29T23:11:27;10.30;;;4.80;;
56824;SDS011;42705;50.326;18.772;2023-12-29T23:16:49;10.10;;;5.30;;
56824;SDS011;42705;50.326;18.772;2023-12-29T23:22:11;10.10;;;4.70;;
56824;SDS011;42705;50.326;18.772;2023-12-29T23:27:33;8.30;;;4.60;;
56824;SDS011;42705;50.326;18.772;2023-12-29T23:32:55;8.50;;;4.60;;
56824;SDS011;42705;50.326;18.772;2023-12-29T23:38:17;12.50;;;5.20;;
56824;SDS011;42705;50.326;18.772;2023-12-29T23:43:40;8.00;;;4.60;;
56824;SDS011;42705;50.326;18.772;2023-12-29T23:49:02;7.20;;;4.20;;
56824;SDS011;42705;50.326;18.772;2023-12-29T23:54:24;10.10;;;4.80;;
56824;SDS011;42705;50.326;18.772;2023-12-29T23:59:46;6.80;;;4.20;;
